CALIFORNIA METAR OBSERVATIONS
*** Not a substitute for official aviation weather ***

METAR Decoder

California METARS via your cellphone - use these links:
http://www.ocflyingclub.com/metars.cfm
http://www.ocflyingclub.com/metar.cfm

KSNA 212253Z 22009G17KT 10SM FEW015 22/15 A2991 RMK AO2 SLP127 T02220150
 
Date: 23Z 21 JUN 18

K9L2 212258Z AUTO 24018G27KT 9SM CLR 42/M05 A2985 RMK AO2 PK WND 21029/41
     PRESRR SLP078
KAAT 212255Z AUTO 33007KT 10SM CLR 29/02 A3011 RMK AO2 SLP161 T02890022
KACV 212253Z AUTO 33018G24KT 10SM CLR 17/11 A3014 RMK AO2 SLP211 T01720111
KAJO 212256Z AUTO 29014G18KT 10SM CLR 30/17 A2987 RMK AO2 SLP120 T03000172
     $
KAPC 212254Z 20009KT 10SM CLR 25/13 A2995 RMK AO2 SLP133 T02500133
KAUN 212335Z AUTO 22007KT 10SM CLR 32/05 A2998 RMK AO1
KAVX 212251Z AUTO VRB04KT 10SM CLR 21/16 A2995 RMK AO2 SLP127 T02110156
KBAB 212258Z AUTO 00000KT 10SM CLR 34/10 A2988 RMK AO2 SLP121 T03360096 $
KBAN 212252Z AUTO 22011KT 10SM CLR 28/M08 A3022 RMK AO2 SLP136 T02781083 $
KBFL 212254Z 28006KT 10SM CLR 34/08 A2988 RMK AO2 SLP111 T03440083
KBIH 212256Z AUTO 23015G22KT 10SM CLR 39/08 A2994 RMK AO2 PK WND 25027/2214
     SLP085 T03890078
KBLH 212252Z AUTO 16012KT 10SM CLR 43/02 A2974 RMK AO2 SLP062 T04280022
KBLU 212252Z AUTO 20006KT 10SM CLR 24/M01 A3022 RMK AO2 SLP139 T02391006
KBUR 212253Z 17011KT 10SM CLR 28/17 A2988 RMK AO2 SLP106 T02830167
KBYS 212255Z AUTO VRB06KT 10SM CLR 42/M05 A2985 RMK AO2 SLP045 WND DATA
     ESTMD T04191055
KCCR 212253Z 31011KT 10SM CLR 33/11 A2993 RMK AO2 SLP120 T03280111
KCEC 212256Z AUTO 32011KT 10SM CLR 17/12 A3016 RMK AO2 SLP213 T01670122
KCIC 212247Z VRB05KT 25SM FEW080 34/00 A2991
KCMA 212255Z 24007KT 10SM CLR 22/14 A2991 RMK AO2 SLP136 T02220144
KCNO 212253Z 24013G24KT 10SM CLR 33/14 A2989 RMK AO2 SLP115 T03280144
KCQT 212247Z AUTO VRB03KT 6SM HZ CLR 24/16 A2989 RMK AO2 SLP120 T02440161
KCRQ 212253Z 26007KT 10SM OVC012 19/15 A2992 RMK AO2 SLP129 T01890150
KCVH 212335Z AUTO 25010KT 9SM CLR 27/12 A2993 RMK A01
KCZZ 212252Z AUTO 21013KT 33/13 A2991 RMK AO1 SLP094 T03280128
KDAG 212250Z AUTO 29012G18KT 10SM CLR 43/M09 A2980 RMK AO2 SLP056
     T04331089
KDVO 212335Z AUTO 00000KT 10SM CLR 31/12 A2992 RMK AO2
KE16 212335Z AUTO 32013G17KT 10SM CLR 29/08 A2995 RMK AO2
KEDU 212335Z AUTO 03005KT 10SM CLR 34/04 A2990 RMK AO1
KEDW 212333Z 27020G29KT 60SM CLR 41/M02 A2984 RMK AO2A WSHFT 30 SLP075
KEED 212256Z AUTO 22013G27KT 10SM CLR 46/M05 A2974 RMK AO2 PK WND
     22027/2254 SLPNO T04611050
KEMT 212245Z 20011KT 10SM CLR 29/16 A2988
KF70 212335Z AUTO 19010KT 10SM CLR 30/15 A2990 RMK AO1
KFAT 212253Z 31011KT 10SM CLR 36/06 A2988 RMK AO2 SLP114 T03610061
KFCH 212335Z AUTO 29008KT 10SM CLR 35/07 A2986 RMK A01
KFOT 212340Z AUTO 33009KT 10SM CLR 18/11 A3014 RMK AO1
KFUL 212253Z 21007KT 10SM CLR 26/16 A2989 RMK AO2 SLP120 T02560161
KGOO 212335Z AUTO 25007KT 10SM CLR 29/03 A3006 RMK AO1
METAR KGXA 212255Z AUTO 25014G21KT 10SM FEW090 40/M03 A2992 RMK AO2 SLP053
     WND DATA ESTMD T03951035 PWINO $
KHAF 212340Z AUTO 32014KT 7SM CLR 15/11 A3003 RMK AO2
KHHR 212253Z 26009KT 7SM CLR 23/16 A2991 RMK AO2 SLP126 T02280161
KHJO 212253Z AUTO 33008KT 10SM CLR 36/07 A2988 RMK AO2 SLP119 T03610067
KHWD 212254Z 27007KT 10SM CLR 22/12 A2997 RMK AO2 SLP158 T02220117
KIPL 212253Z AUTO 12004KT 10SM CLR 41/09 A2971 RMK AO2 SLP061 T04110094
KIZA 212335Z AUTO 27008KT 10SM CLR 27/11 A2990 RMK AO2
KL18 212335Z AUTO 22007G15KT 190V250 10SM CLR 23/15 A2992 RMK AO2
KL35 212335Z AUTO 27010KT 10SM CLR 27/00 A3025 RMK AO2
KLAX 212336Z 23009KT 9SM BKN013 21/16 A2990
KLGB 212253Z 20008KT 10SM CLR 22/16 A2990 RMK AO2 SLP125 T02220161
KLHM 212335Z AUTO 00000KT 10SM CLR 33/03 A2989 RMK AO1
KLPC 212256Z AUTO 25014G18KT 10SM CLR 17/11 RMK AO2 SLPNO T01670111 $
KLVK 212253Z 29010KT 10SM CLR 30/10 A2994 RMK AO2 SLP136 T03000100
KMAE 212253Z AUTO 30009KT 35/03 A2989 RMK AO2 SLP119 T03500028 PWINO $
KMCC 212335Z AUTO 00000KT 10SM CLR 34/00 A2990 RMK AO2
KMCE 212253Z AUTO 34008KT 10SM CLR 34/09 A2989 RMK AO2 SLP119 T03390089
KMER 212245Z 32010KT 10SM SKC 36/07 A2990
KMHR 212250Z 30008KT 10SM SKC 33/07 A2990
KMHS 212256Z AUTO 00000KT 10SM CLR 29/10 A3007 RMK AO2 SLP171 T02940100
KMHV 212320Z AUTO 30021KT 10SM CLR 37/03 A2991 RMK A01
KMMH 212335Z AUTO 28019G23KT 10SM CLR 28/M10 A3026 RMK AO2 T02781103
KMOD 212253Z 31011KT 10SM CLR 33/07 A2990 RMK AO2 SLP123 T03330067
KMRY 212254Z 27011KT 10SM CLR 18/11 A3001 RMK AO2 SLP175 T01780111
KMYF 212253Z 26010G15KT 9SM FEW016 22/14 A2993 RMK AO2 SLP131 T02170144
KMYV 212253Z AUTO 22004KT 10SM CLR 34/09 A2990 RMK AO2 SLP128 T03440089
KNFG 212255Z COR 22009G16KT 10SM FEW012 22/16 A2991 RMK AO2 SLP127
     T02170161
KNID 212256Z 24019G25KT 10SM CLR 43/M11 A2981 RMK AO2 PK WND 24028/2210
     SLP066 T04331106
KNJK 212256Z 11006KT 10SM CLR 41/04 A2973 RMK AO2 SLP081 T04110044 $
KNKX 212255Z 22008KT 10SM FEW015 24/14 A2992 RMK AO2 SLP126 T02440144
KNLC 212256Z 01013KT 10SM CLR 36/04 A2988 RMK AO2 SLP118 RH/13 T03560044
KNRS 212256Z 26010KT 10SM BKN011 20/14 A2994 RMK AO2 SLP137 T02000144
KNSI 212257Z 31008KT 2 1/2SM BR FEW005 BKN008 19/14 A2994 RMK AO2 SLP133
     T01890144 $
KNTD 212258Z 25009KT 7SM SCT012 21/15 A2992 RMK AO2 SLP133 T02110150 VISNO
     N $
KNUC 212256Z 26006KT 10SM BKN011 18/16 A2994 RMK AO2 SLP137 T01830156
KNUQ 212256Z 34011KT 10SM CLR 22/13 A2998 RMK AO2 SLP155 T02220128
KNXF 212256Z AUTO 26007KT 10SM OVC012 21/15 A2992 RMK AO2 SLP217 T02060150
KNXP 212256Z 18006KT 7SM CLR 42/M07 A2989 RMK AO2 SLP077 T04221067
KNZY 212252Z 21008KT 10SM OVC012 19/14 A2993 RMK SLP133 T01890144
KO69 212335Z AUTO 30007KT 280V350 10SM CLR 26/11 A2995 RMK A01
KOAK 212253Z 27010KT 10SM CLR 20/12 A2998 RMK AO2 SLP153 T02000117
KOKB 212309Z AUTO 21008KT 8SM BKN015 21/15 A2991 RMK AO2 T02110150
KONT 212253Z 26014G18KT 10SM CLR 32/15 A2988 RMK AO2 SLP103 HAZY T03220150
KOVE 212253Z AUTO 00000KT 10SM CLR 34/03 A2991 RMK AO2 SLP129 T03440033
KOXR 212251Z 28008KT 10SM OVC010 18/15 A2992 RMK AO2 SLP130 T01830150
KPAO 212247Z 234012KT 10SM SKC 22/13 A2997
KPMD 212253Z 25018KT 10SM CLR 39/04 A2991 RMK AO2 SLP094 T03940039
KPOC 212247Z 27008KT 10SM CLR 30/15 A2993
KPRB 212253Z AUTO 32007KT 10SM CLR 38/03 A2988 RMK AO2 SLP110 T03780033
KPSP 212253Z 07007KT 10SM CLR 42/07 A2976 RMK AO2 SLP074 T04170067
KPTV 212256Z AUTO VRB03KT 10SM CLR 36/13 A2988 RMK AO2 SLP124 T03560128
KPVF 212335Z AUTO 18004KT 10SM CLR 30/M02 A3005 RMK AO1
KRAL 212253Z 28010G17KT 10SM CLR 33/14 A2987 RMK AO2 SLP101 T03280139
KRBL 212254Z AUTO 09009KT 10SM CLR 37/07 A2989 RMK AO2 SLP116 T03670067
KRDD 212253Z VRB05KT 10SM CLR 36/03 A2988 RMK AO2 SLP112 T03610033
KRHV 212247Z 32008KT 10SM SKC 28/09 A2995
KRIV 212258Z AUTO 31012KT 10SM CLR 34/12 A2990 RMK AO2 SLP112 T03370121
KRNM 212253Z 29011KT 10SM CLR 29/15 A2992 RMK AO2 SLP117 T02940150
KSAC 212253Z VRB04KT 10SM CLR 33/08 A2990 RMK AO2 SLP125 T03330078 $
KSAN 212251Z 24009KT 10SM BKN016 20/15 A2995 RMK AO2 SLP140 T02000150
KSBA 212253Z 26008KT 10SM CLR 19/14 A2992 RMK AO2 SLP131 T01890139
KSBD 212250Z 24006KT 6SM HZ SKC 36/08 A2988
KSBP 212256Z 31015KT 10SM CLR 23/11 A2991 RMK AO2 SLP127 T02330106
KSCK 212255Z 30012KT 10SM CLR 36/07 A2990 RMK AO2 SLP125 T03560067
KSDB 212253Z AUTO 34014KT 10SM 32/03 A3012 RMK AO2 SLP136 T03220028 $
KSDM 212253Z 30007KT 10SM CLR 22/15 A2992 RMK AO2 SLP128 T02170150
KSEE 212247Z 22011KT 10SM SKC 25/15 A2991
KSFO 212256Z 29023KT 10SM CLR 19/10 A2998 RMK AO2 PK WND 30026/2253 SLP151
     T01940100
KSIY 212253Z AUTO 07009KT 10SM CLR 31/M04 A3004 RMK AO2 SLP161 T03111044
KSJC 212253Z 31010KT 10SM CLR 26/12 A2997 RMK AO2 SLP148 T02560117
KSLI 212258Z 18009KT 10SM FEW014 22/16 A2990 RMK AO2A SLP128 T02240160
KSMF 212253Z COR 24006KT 9SM CLR 33/09 A2990 RMK AO2 SLP124 T03280089
KSMO 212316Z 23008KT 9SM BKN012 21/16 A2991 RMK AO2 T02060156
KSMX 212251Z 32009KT 9SM CLR 19/12 A2995 RMK AO2 SLP142 T01940117
KSNA 212253Z 22009G17KT 10SM FEW015 22/15 A2991 RMK AO2 SLP127 T02220150
KSNS 212253Z 31014KT 10SM CLR 19/11 A2999 RMK AO2 SLP163 T01940106
KSQL 212247Z 34007KT 10SM SKC 24/11 A2997
KSTS 212253Z 19010KT 10SM CLR 30/11 A2992 RMK AO2 SLP125 T03000106
KSVE 212335Z AUTO 26005KT 10SM CLR 31/M03 A3008 RMK AO2
KSUU 212258Z AUTO 23010KT 10SM CLR 32/12 A2990 RMK AO2 SLP131 T03180121 $
KTOA 212250Z 28014KT 10SM FEW015 23/16 A2990
KTRK 212255Z 24008G14KT 200V260 10SM SKC 26/M03 A3022
KTRM 212252Z AUTO 17005KT 10SM CLR 42/08 A2970 RMK AO2 SLP060 T04170078
KTSP 212335Z AUTO 31013G18KT 10SM CLR 29/06 A3009 RMK AO2
KTVL 212253Z AUTO 20012G17KT 10SM CLR 25/M02 A3022 RMK AO2 SLP178
     T02501022
KUKI 212256Z AUTO 33010KT 10SM CLR 34/00 A2994 RMK AO2 SLP130 T03390000
KVBG 212255Z 33009KT 9SM FEW002 FEW004 SCT008 16/11 A2997 RMK AO2A SLP148
     T01570109
KVCB 212253Z AUTO VRB05KT 10SM CLR 33/12 A2993 RMK AO2 SLP132 T03330122
KVCV 212246Z 26008KT 10SM SKC A2991
KVIS 212256Z AUTO 31009KT 10SM CLR 35/14 A2988 RMK AO2 SLP120 T03500139
KVNY 212251Z 14007KT 10SM CLR 31/16 A2987 RMK AO2 SLP107 T03060161
KWHP 212250Z 12008KT 10SM HZ SKC 29/15 A2992
KWJF 212256Z 24018KT 10SM CLR 38/04 A2990 RMK AO2 SLP098 T03830044
KWVI 212253Z AUTO 16007KT 10SM CLR 22/11 A2998 RMK AO2 SLP153 T02170111